Time;durP1;ratioP1;P1;durP2;ratioP2;P2;SDS_P1;SDS_P2;PMS_P1;PMS_P2;Temp;Humidity;BMP_temperature;BMP_pressure;BME280_temperature;BME280_humidity;BME280_pressure;Samples;Min_cycle;Max_cycle;Signal;HPM_P1;HPM_P2
2022/09/07 00:01:41;;;;;;;14.95;9.23;;;;;;;9.92;100.00;98337.98;1722352;82;22529;-90
2022/09/07 00:04:08;;;;;;;16.97;9.65;;;;;;;9.90;100.00;98336.88;1726759;82;21102;-89
2022/09/07 00:06:34;;;;;;;14.70;8.98;;;;;;;9.87;100.00;98336.88;1712708;82;21062;-82
2022/09/07 00:09:01;;;;;;;15.23;9.48;;;;;;;9.80;100.00;98328.19;1703565;82;20984;-83
2022/09/07 00:11:27;;;;;;;16.57;9.08;;;;;;;9.68;100.00;98320.87;1665368;84;21200;-89
2022/09/07 00:13:53;;;;;;;16.95;9.70;;;;;;;9.68;100.00;98320.87;1724348;82;20857;-89
2022/09/07 00:16:24;;;;;;;16.02;9.10;;;;;;;9.72;100.00;98331.95;1709211;82;21070;-89
2022/09/07 00:18:57;;;;;;;17.05;9.08;;;;;;;9.70;100.00;98338.19;1719373;82;21076;-83
2022/09/07 00:21:23;;;;;;;16.85;10.10;;;;;;;9.70;100.00;98338.19;1716306;82;21014;-82
2022/09/07 00:23:50;;;;;;;17.87;9.55;;;;;;;9.69;100.00;98331.15;1695705;83;21141;-87
2022/09/07 00:26:22;;;;;;;15.60;9.88;;;;;;;9.65;100.00;98336.26;1714045;82;21028;-83
2022/09/07 00:28:48;;;;;;;16.40;9.63;;;;;;;9.57;100.00;98338.13;1737124;82;21555;-88
2022/09/07 00:31:17;;;;;;;14.60;9.75;;;;;;;9.54;100.00;98332.72;1715912;82;21023;-89
2022/09/07 00:33:44;;;;;;;14.78;9.53;;;;;;;9.51;100.00;98336.50;1666457;84;21058;-82
2022/09/07 00:36:10;;;;;;;15.43;9.85;;;;;;;9.44;100.00;98328.62;1710642;80;21120;-84
2022/09/07 00:38:36;;;;;;;17.15;10.25;;;;;;;9.44;100.00;98328.62;1712429;82;21007;-90
2022/09/07 00:41:02;;;;;;;17.32;9.85;;;;;;;9.37;100.00;98333.45;1712399;82;20975;-90
2022/09/07 00:43:38;;;;;;;12.68;8.58;;;;;;;9.36;100.00;98335.08;1716220;82;20970;-89
2022/09/07 00:46:06;;;;;;;15.55;8.98;;;;;;;9.30;100.00;98331.53;1707367;82;21012;-89
2022/09/07 00:48:37;;;;;;;13.00;7.95;;;;;;;9.29;100.00;98340.19;1717163;82;21096;-82
2022/09/07 00:51:09;;;;;;;14.73;9.53;;;;;;;9.20;100.00;98327.43;1718381;82;21524;-90
2022/09/07 00:53:40;;;;;;;14.20;8.38;;;;;;;9.19;100.00;98327.16;1664609;84;21482;-90
2022/09/07 00:56:06;;;;;;;18.40;8.95;;;;;;;9.20;100.00;98340.95;1722652;82;21029;-89
2022/09/07 00:58:32;;;;;;;13.83;9.65;;;;;;;9.11;100.00;98335.23;1731475;82;21054;-89
2022/09/07 01:00:58;;;;;;;17.60;9.85;;;;;;;9.11;100.00;98334.42;1725958;82;21077;-89
2022/09/07 01:03:30;;;;;;;15.03;8.75;;;;;;;9.06;100.00;98336.57;1668846;85;21065;-88
2022/09/07 01:06:01;;;;;;;15.50;9.48;;;;;;;9.03;100.00;98335.72;1653486;85;21522;-82
2022/09/07 01:08:27;;;;;;;15.75;9.20;;;;;;;8.99;100.00;98331.93;1722343;82;21043;-89
2022/09/07 01:10:54;;;;;;;12.98;8.05;;;;;;;8.94;100.00;98327.83;1675512;84;20995;-83
2022/09/07 01:13:20;;;;;;;16.85;9.10;;;;;;;8.90;100.00;98328.91;1733315;82;21153;-83
2022/09/07 01:16:15;;;;;;;18.87;10.03;;;;;;;8.91;100.00;98322.96;1712016;82;21004;-90
2022/09/07 01:19:19;;;;;;;15.40;8.38;;;;;;;8.91;100.00;98321.61;1710715;82;21023;-89
2022/09/07 01:22:27;;;;;;;13.35;7.37;;;;;;;8.94;100.00;98318.38;1736819;82;21004;-83
2022/09/07 01:25:22;;;;;;;15.73;8.27;;;;;;;8.94;100.00;98321.89;1737293;82;21013;-83
2022/09/07 01:28:22;;;;;;;20.52;9.35;;;;;;;8.92;100.00;98317.83;1661506;85;21263;-83
2022/09/07 01:31:00;;;;;;;16.82;8.80;;;;;;;8.90;100.00;98316.74;1705120;82;21078;-82
2022/09/07 01:33:52;;;;;;;15.70;8.23;;;;;;;8.88;100.00;98320.22;1716172;82;21033;-90
2022/09/07 01:36:46;;;;;;;14.35;8.28;;;;;;;8.88;100.00;98324.81;1697776;82;21011;-88
2022/09/07 01:39:12;;;;;;;18.15;8.23;;;;;;;8.88;100.00;98320.77;1658841;84;21480;-89
2022/09/07 01:41:51;;;;;;;15.58;8.50;;;;;;;8.92;100.00;98317.83;1664158;85;21202;-89
2022/09/07 01:44:26;;;;;;;15.18;8.38;;;;;;;8.95;100.00;98313.23;1711538;82;21070;-83
2022/09/07 01:47:12;;;;;;;12.82;7.65;;;;;;;8.98;100.00;98314.90;1700124;82;21123;-82
2022/09/07 01:50:16;;;;;;;13.32;8.23;;;;;;;8.98;100.00;98306.80;1737224;82;21465;-81
2022/09/07 01:53:18;;;;;;;10.95;7.58;;;;;;;8.95;100.00;98302.43;1736635;82;21075;-83
2022/09/07 01:56:07;;;;;;;17.00;10.60;;;;;;;8.93;100.00;98301.34;1712881;82;21076;-84
2022/09/07 01:58:39;;;;;;;;;;;;;;;8.93;100.00;98299.18;1706960;82;22068;-83
2022/09/07 02:01:14;;;;;;;19.48;7.80;;;;;;;8.91;100.00;98299.45;1712324;82;20195;-83
2022/09/07 02:03:51;;;;;;;11.70;8.50;;;;;;;8.91;100.00;98297.28;1687398;84;21023;-88
2022/09/07 02:06:40;;;;;;;15.23;8.80;;;;;;;8.84;100.00;98289.95;1730577;82;21477;-83
2022/09/07 02:09:34;;;;;;;18.00;7.95;;;;;;;8.80;100.00;98295.04;1713196;82;21148;-90
2022/09/07 02:12:02;;;;;;;14.15;8.40;;;;;;;8.73;100.00;98281.78;1723902;80;21016;-88
2022/09/07 02:14:37;;;;;;;15.48;10.35;;;;;;;8.68;100.00;98276.34;1719724;82;21028;-82
2022/09/07 02:17:14;;;;;;;15.43;10.35;;;;;;;8.67;100.00;98276.06;1701127;82;21055;-84
2022/09/07 02:19:44;;;;;;;13.85;8.88;;;;;;;8.64;100.00;98272.55;1724832;82;21070;-88
2022/09/07 02:22:13;;;;;;;13.48;7.60;;;;;;;8.66;100.00;98277.69;1724613;82;22199;-82
2022/09/07 02:24:42;;;;;;;14.65;8.15;;;;;;;8.66;100.00;98275.80;1658522;85;21045;-83
2022/09/07 02:27:13;;;;;;;;;;;;;;;8.67;100.00;98277.95;1739619;82;21012;-89
2022/09/07 02:29:39;;;;;;;15.85;7.95;;;;;;;8.65;100.00;98273.36;1721424;82;20166;-90
2022/09/07 02:32:06;;;;;;;14.93;8.60;;;;;;;8.66;100.00;98279.84;1721722;82;21028;-89
2022/09/07 02:34:31;;;;;;;15.50;7.87;;;;;;;8.69;100.00;98278.50;1713925;80;21160;-89
2022/09/07 02:36:57;;;;;;;16.57;9.00;;;;;;;8.65;100.00;98271.47;1700758;82;20888;-82
2022/09/07 02:39:23;;;;;;;13.15;8.08;;;;;;;8.67;100.00;98279.30;1710852;82;20897;-82
2022/09/07 02:41:49;;;;;;;12.05;8.08;;;;;;;8.69;100.00;98277.96;1675634;84;20970;-89
2022/09/07 02:44:19;;;;;;;18.32;9.30;;;;;;;8.72;100.00;98272.59;1737225;82;20985;-83
2022/09/07 02:47:22;;;;;;;13.70;7.67;;;;;;;8.75;100.00;98278.81;1705874;82;21999;-90
2022/09/07 02:49:59;;;;;;;14.78;8.45;;;;;;;8.76;100.00;98279.09;1709807;82;21033;-89
2022/09/07 02:52:37;;;;;;;15.68;8.15;;;;;;;8.75;100.00;98280.17;1737266;82;21068;-89
2022/09/07 02:55:25;;;;;;;15.58;8.28;;;;;;;8.73;100.00;98279.08;1728048;82;21083;-82
2022/09/07 02:58:46;;;;;;;15.93;8.53;;;;;;;8.72;100.00;98273.95;1737574;82;21028;-90
2022/09/07 03:01:32;;;;;;;14.70;7.47;;;;;;;8.72;100.00;98273.41;1730734;82;21151;-83
2022/09/07 03:04:15;;;;;;;13.38;7.92;;;;;;;8.72;100.00;98268.55;1726705;82;21064;-83
2022/09/07 03:06:46;;;;;;;16.65;8.50;;;;;;;8.72;100.00;98265.84;1645376;85;21452;-83
2022/09/07 03:09:17;;;;;;;15.48;8.93;;;;;;;8.69;100.00;98258.23;1711731;82;21428;-82
2022/09/07 03:11:43;;;;;;;12.20;7.92;;;;;;;8.70;100.00;98266.08;1733350;82;21504;-83
2022/09/07 03:14:21;;;;;;;11.95;8.03;;;;;;;8.68;100.00;98256.08;1722090;82;21962;-82
2022/09/07 03:16:49;;;;;;;14.73;8.30;;;;;;;8.66;100.00;98260.94;1712671;82;28052;-90
2022/09/07 03:19:15;;;;;;;14.97;8.43;;;;;;;8.64;100.00;98259.04;1724879;82;21024;-83
2022/09/07 03:21:41;;;;;;;13.20;7.78;;;;;;;8.63;100.00;98257.92;1716327;82;20967;-89
2022/09/07 03:24:08;;;;;;;11.43;6.70;;;;;;;8.60;100.00;98250.35;1712653;82;21700;-90
2022/09/07 03:26:36;;;;;;;12.28;7.12;;;;;;;8.58;100.00;98258.72;1704150;82;21056;-89
2022/09/07 03:29:02;;;;;;;15.27;8.47;;;;;;;8.59;100.00;98252.78;1655184;84;21002;-82
2022/09/07 03:31:28;;;;;;;12.20;7.80;;;;;;;8.60;100.00;98253.86;1705909;82;20865;-89
2022/09/07 03:33:54;;;;;;;12.28;7.95;;;;;;;8.59;100.00;98250.08;1677654;82;21029;-83
2022/09/07 03:36:19;;;;;;;13.60;8.83;;;;;;;8.61;100.00;98254.67;1666409;84;21446;-83
2022/09/07 03:38:45;;;;;;;13.18;8.28;;;;;;;8.58;100.00;98256.02;1733898;82;21075;-83
2022/09/07 03:41:11;;;;;;;15.30;7.90;;;;;;;8.60;100.00;98257.92;1718711;82;20935;-89
2022/09/07 03:43:37;;;;;;;16.45;8.35;;;;;;;8.62;100.00;98263.86;1717730;82;20990;-86
2022/09/07 03:46:04;;;;;;;14.43;8.10;;;;;;;8.62;100.00;98263.05;1662267;85;20895;-90
2022/09/07 03:48:33;;;;;;;13.28;7.65;;;;;;;8.60;100.00;98261.97;1733540;82;21023;-89
2022/09/07 03:51:07;;;;;;;16.90;8.35;;;;;;;8.61;100.00;98266.30;1735891;81;21040;-83
2022/09/07 03:53:35;;;;;;;10.95;7.03;;;;;;;8.58;100.00;98259.27;1712534;82;21507;-88
2022/09/07 03:56:05;;;;;;;13.40;8.13;;;;;;;8.54;100.00;98266.24;1723375;81;21031;-82
2022/09/07 03:58:31;;;;;;;16.70;8.95;;;;;;;8.48;100.00;98269.47;1666007;84;21049;-89
2022/09/07 04:00:58;;;;;;;15.60;8.18;;;;;;;8.46;100.00;98271.63;1669310;85;21088;-89
2022/09/07 04:03:24;;;;;;;13.10;8.28;;;;;;;8.36;100.00;98265.59;1665910;86;21127;-89
2022/09/07 04:05:50;;;;;;;15.60;8.55;;;;;;;8.34;100.00;98262.84;1708425;82;20967;-83
2022/09/07 04:08:16;;;;;;;13.13;7.97;;;;;;;8.35;100.00;98268.55;1732249;82;20968;-82
2022/09/07 04:10:41;;;;;;;14.35;7.95;;;;;;;8.37;100.00;98271.26;1713865;82;20849;-82
2022/09/07 04:13:07;;;;;;;15.88;9.53;;;;;;;8.26;100.00;98277.63;1698215;84;20903;-87
2022/09/07 04:15:33;;;;;;;17.10;8.98;;;;;;;8.25;100.00;98283.30;1726369;82;21171;-89
2022/09/07 04:17:59;;;;;;;13.65;9.38;;;;;;;8.27;100.00;98289.24;1698003;84;20887;-84
2022/09/07 04:20:25;;;;;;;14.90;8.75;;;;;;;8.27;100.00;98291.95;1727986;82;21080;-89
2022/09/07 04:22:51;;;;;;;12.18;7.25;;;;;;;8.31;100.00;98296.58;1696443;84;20957;-82
2022/09/07 04:25:17;;;;;;;14.43;9.35;;;;;;;8.35;100.00;98289.61;1737355;82;20921;-82
2022/09/07 04:27:44;;;;;;;18.65;9.10;;;;;;;8.40;100.00;98295.06;1737300;82;21154;-83
2022/09/07 04:30:12;;;;;;;15.18;8.80;;;;;;;8.47;100.00;98298.36;1737296;82;20993;-89
2022/09/07 04:32:38;;;;;;;15.83;8.57;;;;;;;8.53;100.00;98299.73;1737592;82;21636;-84
2022/09/07 04:35:05;;;;;;;27.87;10.05;;;;;;;8.58;100.00;98297.08;1736160;80;20881;-90
2022/09/07 04:37:31;;;;;;;17.98;8.10;;;;;;;8.60;100.00;98294.38;1705359;82;21440;-88
2022/09/07 04:39:57;;;;;;;17.85;8.53;;;;;;;8.63;100.00;98292.53;1727842;82;21315;-82
2022/09/07 04:42:23;;;;;;;12.78;8.58;;;;;;;8.66;100.00;98290.65;1690836;84;20898;-83
2022/09/07 04:44:49;;;;;;;14.23;8.68;;;;;;;8.66;100.00;98293.89;1737506;82;21020;-82
2022/09/07 04:47:16;;;;;;;13.35;8.48;;;;;;;8.67;100.00;98296.33;1737204;82;20905;-90
2022/09/07 04:49:42;;;;;;;16.48;8.35;;;;;;;8.69;100.00;98294.17;1737334;82;21032;-89
2022/09/07 04:52:08;;;;;;;14.73;7.87;;;;;;;8.72;100.00;98286.11;1737145;82;21767;-88
2022/09/07 04:54:34;;;;;;;14.05;7.65;;;;;;;8.76;100.00;98287.20;1723892;82;21012;-82
2022/09/07 04:57:00;;;;;;;14.03;7.87;;;;;;;8.80;100.00;98289.64;1708479;82;21009;-89
2022/09/07 04:59:27;;;;;;;14.10;8.55;;;;;;;8.81;100.00;98289.13;1713465;82;21043;-83
2022/09/07 05:01:53;;;;;;;13.10;7.62;;;;;;;8.92;100.00;98288.91;1703080;82;21634;-83
2022/09/07 05:04:18;;;;;;;14.60;8.68;;;;;;;8.99;100.00;98290.84;1681481;84;21316;-82
2022/09/07 05:06:44;;;;;;;11.60;8.13;;;;;;;9.07;100.00;98284.13;1697001;84;21021;-83
2022/09/07 05:09:10;;;;;;;15.18;8.75;;;;;;;9.15;100.00;98285.52;1709792;82;20980;-83
2022/09/07 05:11:36;;;;;;;11.43;7.97;;;;;;;9.16;100.00;98277.14;1687295;84;20901;-89
2022/09/07 05:14:02;;;;;;;12.93;7.92;;;;;;;9.23;100.00;98282.31;1701007;82;20893;-86
2022/09/07 05:16:29;;;;;;;20.75;12.40;;;;;;;9.30;100.00;98272.84;1708789;82;21077;-90
2022/09/07 05:19:00;;;;;;;12.70;7.90;;;;;;;9.37;100.00;98272.61;1712512;82;21439;-90
2022/09/07 05:21:29;;;;;;;16.70;8.78;;;;;;;9.43;100.00;98274.26;1706208;82;21036;-83
2022/09/07 05:23:55;;;;;;;11.83;7.47;;;;;;;9.50;100.00;98278.88;1668372;84;21452;-89
2022/09/07 05:26:23;;;;;;;14.00;6.97;;;;;;;9.55;100.00;98280.23;1736340;82;21048;-84
2022/09/07 05:28:48;;;;;;;14.75;8.18;;;;;;;9.55;100.00;98276.17;1726527;82;21181;-83
2022/09/07 05:31:18;;;;;;;14.20;7.10;;;;;;;9.55;100.00;98288.34;1710539;82;20869;-84
2022/09/07 05:33:47;;;;;;;14.15;7.65;;;;;;;9.65;100.00;98278.09;1719059;80;21066;-83
2022/09/07 05:36:13;;;;;;;;;;;;;;;9.85;100.00;98280.85;1670446;84;21006;-89
2022/09/07 05:38:39;;;;;;;16.80;7.78;;;;;;;10.16;100.00;98283.03;1685741;85;20179;-90
2022/09/07 05:41:17;;;;;;;11.57;8.43;;;;;;;10.45;100.00;98281.17;1732640;82;21246;-90
2022/09/07 05:43:44;;;;;;;15.63;8.95;;;;;;;10.67;100.00;98274.08;1695615;83;48357;-89
2022/09/07 05:46:11;;;;;;;13.18;7.60;;;;;;;10.81;100.00;98274.34;1721455;82;21516;-82
2022/09/07 05:48:38;;;;;;;17.50;7.50;;;;;;;10.94;100.00;98271.87;1737018;82;21029;-87
2022/09/07 05:51:04;;;;;;;16.52;8.53;;;;;;;11.04;100.00;98270.22;1737235;82;21060;-83
2022/09/07 05:53:32;;;;;;;16.85;9.30;;;;;;;11.12;100.00;98273.72;1732130;82;21060;-89
2022/09/07 05:55:59;;;;;;;11.20;8.00;;;;;;;11.22;100.00;98273.13;1706692;82;21016;-89
2022/09/07 05:58:26;;;;;;;13.58;7.55;;;;;;;11.33;100.00;98269.81;1713353;82;21027;-89
2022/09/07 06:00:52;;;;;;;15.35;8.65;;;;;;;11.36;100.00;98273.31;1699398;82;21436;-90
2022/09/07 06:03:18;;;;;;;12.37;7.90;;;;;;;11.43;100.00;98277.09;1699248;84;21042;-83
2022/09/07 06:05:44;;;;;;;12.53;7.62;;;;;;;11.48;100.00;98283.86;1718010;82;21150;-83
2022/09/07 06:08:10;;;;;;;11.75;8.13;;;;;;;11.60;100.00;98281.62;1722505;82;21020;-82
2022/09/07 06:10:36;;;;;;;10.63;7.45;;;;;;;11.69;100.00;98277.77;1713693;82;20913;-84
2022/09/07 06:13:03;;;;;;;13.05;8.10;;;;;;;11.76;100.00;98280.98;1722321;82;21060;-83
2022/09/07 06:15:32;;;;;;;14.35;9.33;;;;;;;12.01;100.00;98280.05;1714979;82;21015;-89
2022/09/07 06:17:58;;;;;;;15.18;8.70;;;;;;;12.32;100.00;98269.77;1720120;82;21111;-90
2022/09/07 06:20:24;;;;;;;12.53;8.53;;;;;;;12.73;100.00;98270.73;1713033;82;21639;-82
2022/09/07 06:22:50;;;;;;;11.63;8.53;;;;;;;13.07;100.00;98280.97;1717313;82;20973;-83
2022/09/07 06:25:16;;;;;;;14.33;8.80;;;;;;;13.33;99.25;98272.02;1727386;82;20866;-90
2022/09/07 06:27:42;;;;;;;14.55;8.68;;;;;;;13.58;99.87;98265.95;1728314;82;21008;-90
2022/09/07 06:30:09;;;;;;;13.50;9.08;;;;;;;13.73;99.21;98267.91;1725946;82;21254;-90
2022/09/07 06:32:37;;;;;;;12.30;8.20;;;;;;;13.86;99.34;98265.58;1711800;82;20993;-90
2022/09/07 06:35:03;;;;;;;12.65;8.90;;;;;;;14.03;96.93;98256.33;1721411;80;21469;-90
2022/09/07 06:37:29;;;;;;;16.15;8.40;;;;;;;14.14;96.42;98267.88;1706706;82;21060;-83
2022/09/07 06:39:55;;;;;;;11.80;8.23;;;;;;;14.27;97.67;98260.28;1665438;84;20886;-83
2022/09/07 06:42:20;;;;;;;11.10;8.03;;;;;;;14.27;95.93;98257.56;1712658;82;21153;-83
2022/09/07 06:44:46;;;;;;;10.85;7.72;;;;;;;14.55;95.42;98257.13;1681371;84;20898;-83
2022/09/07 06:47:12;;;;;;;11.10;7.62;;;;;;;14.94;93.64;98252.02;1716548;82;20933;-89
2022/09/07 06:49:38;;;;;;;11.28;7.35;;;;;;;15.38;92.82;98259.34;1707416;82;20897;-84
2022/09/07 06:52:04;;;;;;;15.45;8.25;;;;;;;15.84;91.32;98252.38;1710744;82;20909;-90
2022/09/07 06:54:30;;;;;;;13.48;7.90;;;;;;;16.34;91.28;98260.48;1707111;82;21199;-90
2022/09/07 06:56:56;;;;;;;10.63;7.78;;;;;;;16.72;87.94;98260.09;1729073;82;20944;-83
2022/09/07 06:59:22;;;;;;;14.35;8.20;;;;;;;17.04;86.40;98256.22;1707726;82;20897;-90
2022/09/07 07:01:48;;;;;;;32.15;8.18;;;;;;;17.54;83.79;98260.81;1699083;84;20878;-84
2022/09/07 07:04:13;;;;;;;14.23;7.30;;;;;;;18.00;84.26;98258.87;1728126;82;21662;-90
2022/09/07 07:06:39;;;;;;;10.82;7.40;;;;;;;18.42;83.41;98250.94;1726692;82;21003;-91
2022/09/07 07:09:07;;;;;;;20.27;7.22;;;;;;;18.89;81.05;98248.28;1702572;82;20896;-90
2022/09/07 07:11:35;;;;;;;14.73;7.83;;;;;;;19.56;82.66;98242.52;1691888;84;21050;-91
2022/09/07 07:14:01;;;;;;;11.48;6.70;;;;;;;19.79;81.71;98237.55;1717457;82;21034;-84
2022/09/07 07:16:27;;;;;;;14.13;6.92;;;;;;;20.32;80.96;98243.66;1709533;82;21022;-89
2022/09/07 07:18:56;;;;;;;9.65;6.40;;;;;;;20.53;73.68;98247.22;1709342;82;21916;-90
2022/09/07 07:21:22;;;;;;;12.20;7.00;;;;;;;20.72;74.06;98242.55;1712401;82;21029;-85
2022/09/07 07:23:52;;;;;;;12.07;7.37;;;;;;;21.19;70.09;98241.34;1712247;82;21652;-89
2022/09/07 07:26:21;;;;;;;8.93;6.40;;;;;;;21.56;72.88;98234.72;1708909;82;21034;-91
2022/09/07 07:28:48;;;;;;;;;;;;;;;22.03;71.35;98234.72;1704939;82;21020;-91
2022/09/07 07:31:15;;;;;;;;;;;;;;;22.15;64.55;98232.77;1711477;82;21100;-91
2022/09/07 07:33:41;;;;;;;;;;;;;;;22.78;70.41;98238.43;1702671;80;20232;-85
2022/09/07 07:36:15;;;;;;;;;;;;;;;22.84;66.22;98226.55;1736288;80;20332;-85
2022/09/07 07:38:42;;;;;;;;;;;;;;;23.20;61.65;98219.17;1720432;82;20615;-85
2022/09/07 07:41:08;;;;;;;;;;;;;;;23.19;58.86;98225.87;1721056;82;20228;-85
2022/09/07 07:43:34;;;;;;;;;;;;;;;24.02;64.59;98226.02;1718832;82;21099;-86
2022/09/07 07:46:00;;;;;;;;;;;;;;;24.50;59.69;98227.19;1719518;82;20212;-91
2022/09/07 07:48:26;;;;;;;;;;;;;;;25.06;67.10;98230.23;1739535;82;20728;-91
2022/09/07 07:51:03;;;;;;;;;;;;;;;25.28;64.63;98236.91;1724045;82;20202;-92
2022/09/07 07:53:29;;;;;;;;;;;;;;;25.57;60.71;98234.81;1726502;82;20537;-86
2022/09/07 07:55:58;;;;;;;;;;;;;;;25.91;65.66;98228.58;1720517;82;21089;-85
2022/09/07 07:58:26;;;;;;;;;;;;;;;25.95;60.59;98227.43;1722652;82;20216;-92
2022/09/07 08:00:53;;;;;;;;;;;;;;;25.58;59.78;98228.67;1719212;82;20782;-90
2022/09/07 08:03:19;;;;;;;;;;;;;;;25.60;53.38;98225.73;1728630;82;20176;-85
2022/09/07 08:05:45;;;;;;;;;;;;;;;26.53;53.48;98226.98;1727276;80;20286;-86
2022/09/07 08:08:11;;;;;;;;;;;;;;;26.55;52.33;98221.03;1714080;82;21130;-86
2022/09/07 08:10:37;;;;;;;;;;;;;;;27.31;56.16;98224.16;1714795;82;20210;-86
2022/09/07 08:13:03;;;;;;;;;;;;;;;27.71;51.22;98219.70;1714312;82;20240;-85
2022/09/07 08:15:29;;;;;;;;;;;;;;;28.05;49.43;98221.08;1725357;82;20260;-90
2022/09/07 08:17:56;;;;;;;;;;;;;;;28.24;44.95;98217.77;1719039;81;20256;-85
2022/09/07 08:20:22;;;;;;;;;;;;;;;28.01;43.94;98223.63;1710581;82;21061;-91
2022/09/07 08:22:51;;;;;;;;;;;;;;;28.65;44.07;98214.16;1723860;82;20283;-89
2022/09/07 08:25:17;;;;;;;;;;;;;;;29.16;43.16;98210.26;1729622;82;20213;-87
2022/09/07 08:27:42;;;;;;;;;;;;;;;28.89;41.85;98210.64;1720852;82;20225;-85
2022/09/07 08:30:09;;;;;;;;;;;;;;;29.76;44.27;98206.62;1720771;80;20272;-86
2022/09/07 08:32:35;;;;;;;;;;;;;;;29.78;42.30;98198.63;1718418;82;21755;-89
2022/09/07 08:35:01;;;;;;;;;;;;;;;30.69;45.65;98198.69;1718733;80;20211;-86
2022/09/07 08:37:28;;;;;;;;;;;;;;;30.83;42.99;98197.78;1717260;82;20200;-91
2022/09/07 08:39:54;;;;;;;;;;;;;;;30.51;39.21;98193.17;1715928;82;20295;-86
2022/09/07 08:42:41;;;;;;;;;;;;;;;31.53;41.50;98189.22;1717372;81;20182;-86
2022/09/07 08:45:16;;;;;;;;;;;;;;;31.66;36.24;98194.50;1718436;82;21006;-86
2022/09/07 08:47:45;;;;;;;;;;;;;;;31.94;35.34;98175.98;1722491;82;20729;-86
2022/09/07 08:50:14;;;;;;;;;;;;;;;32.25;39.60;98179.61;1717994;82;20184;-91
2022/09/07 08:52:43;;;;;;;;;;;;;;;32.11;35.86;98174.19;1718835;82;20311;-91
2022/09/07 08:55:19;;;;;;;;;;;;;;;32.79;40.22;98175.45;1711532;80;20150;-91
2022/09/07 08:57:52;;;;;;;;;;;;;;;32.81;36.92;98175.82;1718930;82;21083;-90
2022/09/07 09:00:18;;;;;;;;;;;;;;;32.80;33.54;98172.83;1720663;82;20633;-86
2022/09/07 09:02:43;;;;;;;;;;;;;;;33.24;36.80;98176.55;1700982;82;20189;-86
2022/09/07 09:05:22;;;;;;;;;;;;;;;33.48;36.39;98176.58;1718721;82;20191;-86
2022/09/07 09:08:11;;;;;;;;;;;;;;;33.79;36.54;98178.61;1716599;80;20491;-91
2022/09/07 09:10:43;;;;;;;;;;;;;;;34.10;35.23;98175.02;1706015;82;21889;-86
2022/09/07 09:13:12;;;;;;;;;;;;;;;32.45;33.14;98173.37;1720470;82;20287;-89
2022/09/07 09:15:45;;;;;;;;;;;;;;;30.60;38.28;98174.55;1722994;82;20158;-86
2022/09/07 09:18:20;;;;;;;;;;;;;;;29.21;39.89;98174.37;1723197;81;20218;-86
2022/09/07 09:20:49;;;;;;;;;;;;;;;28.18;43.07;98174.77;1713156;82;20215;-91
2022/09/07 09:23:16;;;;;;;;;;;;;;;27.07;45.01;98168.55;1666544;85;21000;-85
2022/09/07 09:25:57;;;;;;;;;;;;;;;26.51;46.15;98169.61;1669495;85;20978;-91
2022/09/07 09:28:23;;;;;;;;;;;;;;;25.80;47.57;98166.77;1667257;85;20192;-91
2022/09/07 09:30:49;;;;;;;;;;;;;;;24.63;50.30;98167.70;1724272;80;20834;-92
2022/09/07 09:33:23;;;;;;;;;;;;;;;24.19;51.33;98164.69;1715994;82;20605;-91
2022/09/07 09:35:50;;;;;;;;;;;;;;;23.74;52.44;98155.64;1730766;82;21053;-85
2022/09/07 09:38:28;;;;;;;;;;;;;;;23.51;53.62;98158.30;1725461;82;20969;-85
2022/09/07 09:40:54;;;;;;;;;;;;;;;22.87;56.88;98160.94;1727550;82;20197;-84
2022/09/07 09:43:20;;;;;;;;;;;;;;;22.83;56.46;98152.33;1725580;80;20247;-89
2022/09/07 09:45:48;;;;;;;;;;;;;;;22.68;56.68;98149.78;1716922;82;20607;-91
2022/09/07 09:48:19;;;;;;;;;;;;;;;22.46;58.37;98145.66;1722055;82;21161;-89
2022/09/07 09:50:47;;;;;;;;;;;;;;;22.44;58.92;98137.73;1733493;82;20476;-85
2022/09/07 09:53:26;;;;;;;;;;;;;;;22.51;59.12;98142.64;1725850;82;20256;-92
2022/09/07 09:55:52;;;;;;;;;;;;;;;22.57;57.47;98135.70;1722471;80;20225;-91
2022/09/07 09:58:31;;;;;;;;;;;;;;;22.42;60.46;98140.05;1732925;82;20192;-85
2022/09/07 10:01:04;;;;;;;;;;;;;;;22.37;60.59;98131.22;1726184;82;21034;-91
2022/09/07 10:03:31;;;;;;;;;;;;;;;22.37;59.84;98132.02;1721158;82;20221;-92
2022/09/07 10:05:57;;;;;;;;;;;;;;;22.23;61.93;98130.28;1722863;80;20241;-91
2022/09/07 10:08:24;;;;;;;;;;;;;;;22.36;61.12;98126.28;1735416;82;20752;-85
2022/09/07 10:10:58;;;;;;;;;;;;;;;22.39;60.54;98124.76;1739173;82;20204;-92
2022/09/07 10:13:31;;;;;;;;;;;;;;;22.36;61.94;98120.76;1706071;82;21802;-92
2022/09/07 10:15:58;;;;;;;;;;;;;;;22.49;61.35;98120.12;1718332;82;20274;-85
2022/09/07 10:18:27;;;;;;;;;;;;;;;22.60;60.91;98117.62;1725066;80;20168;-84
2022/09/07 10:20:54;;;;;;;;;;;;;;;22.63;62.27;98118.27;1721007;82;20525;-92
2022/09/07 10:23:22;;;;;;;;;;;;;;;22.78;61.07;98124.38;1737124;82;20323;-91
2022/09/07 10:25:47;;;;;;;;;;;;;;;22.82;61.50;98117.00;1722479;82;21244;-84
2022/09/07 10:28:21;;;;;;;;;;;;;;;22.87;60.67;98116.73;1669895;85;20186;-91
2022/09/07 10:31:07;;;;;;;;;;;;;;;22.87;60.99;98114.56;1664319;84;20226;-92
2022/09/07 10:33:49;;;;;;;;;;;;;;;22.82;61.49;98115.62;1675003;84;20197;-93
2022/09/07 10:36:20;;;;;;;;;;;;;;;22.86;61.11;98117.90;1673261;84;20279;-92
2022/09/07 10:38:55;;;;;;;;;;;;;;;22.94;61.11;98117.49;1704144;82;21928;-92
2022/09/07 10:41:23;;;;;;;;;;;;;;;22.97;61.26;98110.66;1715888;82;20241;-92
2022/09/07 10:43:49;;;;;;;;;;;;;;;22.84;61.54;98116.63;1722844;80;20200;-91
2022/09/07 10:46:34;;;;;;;;;;;;;;;22.93;61.13;98117.27;1722155;80;20581;-85
2022/09/07 10:49:15;;;;;;;;;;;;;;;22.99;61.06;98113.09;1724651;82;20182;-92
2022/09/07 10:51:47;;;;;;;;;;;;;;;23.03;60.84;98111.99;1719896;82;21103;-92
2022/09/07 10:54:41;;;;;;;;;;;;;;;23.02;60.50;98114.54;1721814;80;20232;-84
2022/09/07 10:57:43;;;;;;;;;;;;;;;22.93;60.65;98110.37;1721431;82;20272;-84
2022/09/07 11:00:12;;;;;;;;;;;;;;;22.75;61.26;98115.44;1714996;82;20355;-85
2022/09/07 11:03:00;;;;;;;;;;;;;;;22.79;61.48;98115.73;1725123;82;20742;-85
2022/09/07 11:05:28;;;;;;;;;;;;;;;22.79;61.45;98119.88;1723102;82;21055;-84
2022/09/07 11:08:15;;;;;;;;;;;;;;;22.82;61.37;98118.37;1730820;80;20571;-84
2022/09/07 11:10:43;;;;;;;;;;;;;;;22.71;61.09;98113.16;1720180;82;20260;-91
2022/09/07 11:13:12;;;;;;;;;;;;;;;22.79;61.74;98111.59;1725239;82;20172;-92
2022/09/07 11:15:43;;;;;;;;;;;;;;;22.87;61.67;98112.59;1723374;82;20551;-85
2022/09/07 11:18:30;;;;;;;;;;;;;;;22.93;60.95;98107.02;1725614;82;21761;-85
2022/09/07 11:20:57;;;;;;;;;;;;;;;22.98;60.26;98105.34;1726407;82;20283;-91
2022/09/07 11:23:42;;;;;;;;;;;;;;;23.10;61.34;98108.59;1725158;82;20203;-92
2022/09/07 11:26:18;;;;;;;;;;;;;;;23.06;59.01;98109.88;1725257;82;20253;-92
2022/09/07 11:29:03;;;;;;;;;;;;;;;23.11;59.26;98107.44;1720617;82;20436;-85
2022/09/07 11:31:40;;;;;;;;;;;;;;;23.15;59.99;98108.30;1703561;82;21092;-91
2022/09/07 11:34:24;;;;;;;;;;;;;;;23.19;58.84;98107.82;1727211;82;20189;-85
2022/09/07 11:37:03;;;;;;;;;;;;;;;23.24;59.54;98112.25;1721272;82;20459;-85
2022/09/07 11:39:39;;;;;;;;;;;;;;;23.25;59.47;98113.30;1655829;85;20467;-92
2022/09/07 11:42:13;;;;;;;;;;;;;;;23.09;58.15;98113.91;1676098;84;20218;-85
2022/09/07 11:44:45;;;;;;;;;;;;;;;23.11;59.04;98111.58;1678283;83;21985;-91
2022/09/07 11:47:15;;;;;;;;;;;;;;;23.18;59.80;98113.71;1683026;83;20241;-93
2022/09/07 11:49:40;;;;;;;;;;;;;;;23.22;58.85;98109.85;1680695;84;20242;-85
2022/09/07 11:52:09;;;;;;;;;;;;;;;23.15;58.23;98104.73;1678001;84;20179;-92
2022/09/07 11:54:52;;;;;;;;;;;;;;;23.02;58.51;98100.72;1722886;80;20209;-84
2022/09/07 11:57:51;;;;;;;;;;;;;;;23.10;58.58;98106.42;1723419;82;21043;-91
2022/09/07 12:00:21;;;;;;;;;;;;;;;23.08;58.05;98099.88;1726881;82;20596;-91
2022/09/07 12:03:03;;;;;;;;;;;;;;;23.04;58.07;98105.30;1724117;82;20205;-85
2022/09/07 12:05:57;;;;;;;;;;;;;;;23.05;57.36;98103.34;1720179;82;20254;-91
2022/09/07 12:08:52;;;;;;;;;;;;;;;23.19;58.73;98105.64;1727126;80;20216;-92
2022/09/07 12:11:37;;;;;;;;;;;;;;;23.15;56.46;98101.39;1729416;82;21060;-92
2022/09/07 12:14:28;;;;;;;;;;;;;;;23.23;57.00;98104.54;1714883;82;20458;-85